Time;durP1;ratioP1;P1;durP2;ratioP2;P2;SDS_P1;SDS_P2;PMS_P1;PMS_P2;Temp;Humidity;BMP_temperature;BMP_pressure;BME280_temperature;BME280_humidity;BME280_pressure;Samples;Min_cycle;Max_cycle;Signal;HPM_P1;HPM_P2
2023/12/20 00:01:36;;;;;;;1.40;1.30;;;;;;;3.78;100.00;98677.56;4136259;28;20209;-49
2023/12/20 00:03:38;;;;;;;1.20;1.10;;;;;;;3.81;100.00;98677.13;4137998;28;20229;-51
2023/12/20 00:05:43;;;;;;;1.48;1.38;;;;;;;3.86;100.00;98676.56;4123412;28;20237;-50
2023/12/20 00:07:45;;;;;;;1.13;1.13;;;;;;;3.85;100.00;98678.41;4141430;28;20236;-51
2023/12/20 00:09:47;;;;;;;1.45;1.35;;;;;;;3.84;100.00;98687.56;4139318;28;20215;-50
2023/12/20 00:11:49;;;;;;;2.83;1.55;;;;;;;3.81;100.00;98682.56;4138292;28;20284;-50
2023/12/20 00:13:50;;;;;;;1.10;1.08;;;;;;;3.81;100.00;98682.56;4140621;28;20564;-52
2023/12/20 00:15:53;;;;;;;1.13;1.13;;;;;;;3.82;100.00;98684.25;4140581;28;20244;-50
2023/12/20 00:17:54;;;;;;;1.98;1.88;;;;;;;3.82;100.00;98676.13;4126996;28;20225;-50
2023/12/20 00:19:56;;;;;;;1.70;1.60;;;;;;;3.82;100.00;98688.81;4138135;28;20694;-49
2023/12/20 00:21:59;;;;;;;1.13;1.13;;;;;;;3.78;100.00;98682.97;4136024;28;20240;-51
2023/12/20 00:24:01;;;;;;;1.52;1.52;;;;;;;3.79;100.00;98673.81;4134540;28;20329;-50
2023/12/20 00:26:03;;;;;;;1.80;1.70;;;;;;;3.87;100.00;98670.91;4133739;28;20201;-51
2023/12/20 00:28:05;;;;;;;2.03;1.92;;;;;;;3.84;100.00;98682.16;4139222;28;20356;-50
2023/12/20 00:30:08;;;;;;;1.80;1.70;;;;;;;3.86;100.00;98674.66;4142495;28;20350;-50
2023/12/20 00:32:10;;;;;;;1.05;1.05;;;;;;;3.88;100.00;98667.16;4135585;28;20209;-50
2023/12/20 00:34:11;;;;;;;1.88;1.75;;;;;;;3.81;100.00;98665.50;4133904;28;20209;-52
2023/12/20 00:36:13;;;;;;;1.88;1.70;;;;;;;3.77;100.00;98659.66;4134961;28;20609;-50
2023/12/20 00:38:15;;;;;;;1.23;1.23;;;;;;;3.87;100.00;98662.78;4137107;28;20229;-51
2023/12/20 00:40:17;;;;;;;1.85;1.75;;;;;;;3.81;100.00;98671.72;4138711;28;20206;-51
2023/12/20 00:42:19;;;;;;;1.50;1.40;;;;;;;3.89;100.00;98658.03;4143538;28;20204;-51
2023/12/20 00:44:21;;;;;;;4.63;1.48;;;;;;;3.84;100.00;98662.38;4144319;28;20351;-51
2023/12/20 00:46:22;;;;;;;4.72;2.03;;;;;;;3.80;100.00;98661.94;4140557;28;20247;-51
2023/12/20 00:48:26;;;;;;;1.92;1.83;;;;;;;3.83;100.00;98653.44;4140445;28;20229;-50
2023/12/20 00:50:28;;;;;;;1.65;1.55;;;;;;;3.88;100.00;98660.94;4144487;28;20295;-51
2023/12/20 00:52:31;;;;;;;7.88;1.88;;;;;;;3.88;100.00;98656.34;4127088;28;20490;-51
2023/12/20 00:54:32;;;;;;;1.30;1.30;;;;;;;3.92;100.00;98652.19;4144027;28;20706;-52
2023/12/20 00:56:34;;;;;;;1.00;1.00;;;;;;;3.87;100.00;98643.03;4140984;28;20224;-50
2023/12/20 00:58:36;;;;;;;1.67;1.58;;;;;;;3.83;100.00;98639.06;4140377;28;20248;-50
2023/12/20 01:00:38;;;;;;;1.25;1.25;;;;;;;3.88;100.00;98642.00;4144624;28;20213;-51
2023/12/20 01:02:43;;;;;;;1.15;1.15;;;;;;;3.86;100.00;98630.56;4143413;28;20314;-51
2023/12/20 01:04:45;;;;;;;1.35;1.25;;;;;;;3.93;100.00;98629.50;4137603;28;20298;-52
2023/12/20 01:06:46;;;;;;;1.17;1.17;;;;;;;3.89;100.00;98636.38;4139983;28;20216;-51
2023/12/20 01:08:48;;;;;;;1.67;1.60;;;;;;;3.85;100.00;98636.97;4140066;28;20247;-51
2023/12/20 01:10:50;;;;;;;2.72;2.50;;;;;;;3.88;100.00;98645.50;4140099;28;20201;-51
2023/12/20 01:12:51;;;;;;;1.45;1.35;;;;;;;3.87;100.00;98633.03;4140185;28;20213;-49
2023/12/20 01:14:53;;;;;;;1.10;1.10;;;;;;;3.85;100.00;98627.00;4143941;28;20232;-50
2023/12/20 01:16:55;;;;;;;0.80;0.80;;;;;;;3.87;100.00;98633.03;4138747;28;20232;-50
2023/12/20 01:18:57;;;;;;;1.65;1.55;;;;;;;3.90;100.00;98634.50;4140430;28;20228;-50
2023/12/20 01:21:03;;;;;;;1.10;1.10;;;;;;;3.81;100.00;98636.53;4140993;28;20300;-52
2023/12/20 01:23:05;;;;;;;1.23;1.23;;;;;;;3.87;100.00;98632.22;4139765;28;20227;-51
2023/12/20 01:25:07;;;;;;;1.20;1.20;;;;;;;3.83;100.00;98631.78;4141604;28;20210;-51
2023/12/20 01:27:11;;;;;;;1.20;1.20;;;;;;;3.86;100.00;98639.47;4129749;28;20263;-50
2023/12/20 01:29:14;;;;;;;1.20;1.13;;;;;;;3.93;100.00;98632.22;4145204;28;20698;-51
2023/12/20 01:31:15;;;;;;;0.85;0.85;;;;;;;3.92;100.00;98630.53;4144742;28;20209;-51
2023/12/20 01:33:17;;;;;;;1.73;1.63;;;;;;;3.94;100.00;98619.53;4137075;28;20220;-50
2023/12/20 01:35:19;;;;;;;1.40;1.40;;;;;;;3.93;100.00;98620.56;4137718;28;20775;-50
2023/12/20 01:37:23;;;;;;;1.20;1.20;;;;;;;3.94;100.00;98617.63;4137008;28;20240;-49
2023/12/20 01:39:25;;;;;;;1.38;1.38;;;;;;;3.95;100.00;98619.28;4144519;28;20268;-51
2023/12/20 01:41:30;;;;;;;1.30;1.20;;;;;;;4.00;100.00;98633.06;4137665;28;20206;-49
2023/12/20 01:43:32;;;;;;;1.17;1.17;;;;;;;3.95;100.00;98635.53;4124277;28;20228;-50
2023/12/20 01:45:48;;;;;;;0.98;0.98;;;;;;;3.91;100.00;98639.72;4137437;28;20236;-50
2023/12/20 01:47:50;;;;;;;0.90;0.90;;;;;;;3.98;100.00;98648.69;4137926;28;20272;-49
2023/12/20 01:49:52;;;;;;;1.13;1.13;;;;;;;3.98;100.00;98651.38;4139742;28;20703;-50
2023/12/20 01:51:54;;;;;;;1.02;1.00;;;;;;;4.04;100.00;98647.84;4138468;28;20674;-50
2023/12/20 01:53:57;;;;;;;1.10;1.10;;;;;;;4.08;100.00;98642.88;4139621;28;20202;-51
2023/12/20 01:55:59;;;;;;;0.98;0.98;;;;;;;4.01;100.00;98631.19;4119346;28;20206;-50
2023/12/20 01:58:01;;;;;;;1.30;1.30;;;;;;;4.04;100.00;98634.31;4137927;28;21061;-50
2023/12/20 02:00:03;;;;;;;1.15;1.15;;;;;;;4.08;100.00;98640.97;4124639;28;20215;-51
2023/12/20 02:02:05;;;;;;;0.98;0.98;;;;;;;4.13;100.00;98646.59;4125234;28;20206;-53
2023/12/20 02:04:07;;;;;;;1.42;1.38;;;;;;;4.03;100.00;98648.91;4136570;28;20244;-56
2023/12/20 02:06:09;;;;;;;1.05;1.05;;;;;;;4.05;100.00;98640.56;4138819;28;20206;-56
2023/12/20 02:08:11;;;;;;;1.00;1.00;;;;;;;4.03;100.00;98648.91;4146682;28;20307;-53
2023/12/20 02:10:13;;;;;;;1.17;1.17;;;;;;;4.07;100.00;98642.00;4138822;28;20214;-50
2023/12/20 02:12:15;;;;;;;1.10;1.10;;;;;;;4.09;100.00;98631.00;4142689;28;20221;-50
2023/12/20 02:14:17;;;;;;;1.08;0.98;;;;;;;4.09;100.00;98631.84;4143664;28;20219;-50
2023/12/20 02:16:19;;;;;;;1.10;1.10;;;;;;;4.09;100.00;98656.22;4137402;28;20618;-51
2023/12/20 02:18:21;;;;;;;1.13;1.13;;;;;;;4.17;100.00;98653.28;4137615;28;20221;-51
2023/12/20 02:20:23;;;;;;;1.02;1.02;;;;;;;4.18;100.00;98641.41;4138786;28;20786;-50
2023/12/20 02:22:24;;;;;;;1.08;1.08;;;;;;;4.12;100.00;98646.81;4137163;28;20264;-50
2023/12/20 02:24:26;;;;;;;0.98;0.98;;;;;;;4.15;100.00;98635.59;4135521;28;20252;-52
2023/12/20 02:26:28;;;;;;;1.00;1.00;;;;;;;4.10;100.00;98629.94;4136567;28;20247;-52
2023/12/20 02:28:30;;;;;;;1.08;1.08;;;;;;;4.10;100.00;98611.84;4141792;28;20780;-53
2023/12/20 02:30:32;;;;;;;1.30;1.23;;;;;;;4.14;100.00;98612.25;4138384;28;20209;-55
2023/12/20 02:32:34;;;;;;;1.15;1.15;;;;;;;4.12;100.00;98626.00;4141266;28;20782;-50
2023/12/20 02:34:36;;;;;;;1.17;1.10;;;;;;;4.14;100.00;98629.31;4141808;28;20301;-49
2023/12/20 02:36:37;;;;;;;1.15;1.02;;;;;;;4.20;100.00;98638.50;4138320;28;20232;-51
2023/12/20 02:38:39;;;;;;;0.90;0.90;;;;;;;4.16;100.00;98637.25;4139075;28;20606;-50
2023/12/20 02:40:41;;;;;;;1.45;1.38;;;;;;;4.23;100.00;98633.50;4140661;28;20622;-52
2023/12/20 02:42:50;;;;;;;1.00;1.00;;;;;;;4.19;100.00;98617.91;4133843;28;20205;-50
2023/12/20 02:44:52;;;;;;;0.70;0.70;;;;;;;4.24;100.00;98613.50;4136326;28;20351;-50
2023/12/20 02:46:54;;;;;;;1.02;1.02;;;;;;;4.14;100.00;98613.06;4135387;28;20213;-55
2023/12/20 02:48:55;;;;;;;1.63;1.58;;;;;;;4.21;100.00;98619.31;4124808;28;20230;-51
2023/12/20 02:50:57;;;;;;;1.10;1.10;;;;;;;4.25;100.00;98642.25;4146094;28;20252;-53
2023/12/20 02:52:59;;;;;;;1.40;1.30;;;;;;;4.25;100.00;98639.53;4123783;28;20646;-50
2023/12/20 02:55:00;;;;;;;1.52;1.52;;;;;;;4.22;100.00;98650.81;4128771;28;20202;-51
2023/12/20 02:57:03;;;;;;;0.88;0.88;;;;;;;4.27;100.00;98655.59;4142547;28;20209;-51
2023/12/20 02:59:08;;;;;;;1.20;1.20;;;;;;;4.30;100.00;98645.19;4142871;28;20244;-50
2023/12/20 03:01:10;;;;;;;1.23;1.23;;;;;;;4.31;100.00;98651.41;4134217;28;20716;-50
2023/12/20 03:03:12;;;;;;;1.25;1.25;;;;;;;4.28;100.00;98652.66;4135220;28;20209;-51
2023/12/20 03:05:14;;;;;;;0.85;0.85;;;;;;;4.35;100.00;98652.69;4137173;28;20217;-54
2023/12/20 03:07:16;;;;;;;1.33;1.33;;;;;;;4.37;100.00;98662.28;4136267;28;20205;-51
2023/12/20 03:09:17;;;;;;;1.10;1.10;;;;;;;4.35;100.00;98658.09;4137887;28;20303;-52
2023/12/20 03:11:19;;;;;;;1.52;1.52;;;;;;;4.42;100.00;98648.94;4137608;28;20568;-50
2023/12/20 03:13:21;;;;;;;1.42;1.33;;;;;;;4.36;100.00;98660.59;4125335;28;20659;-50
2023/12/20 03:15:22;;;;;;;1.25;1.25;;;;;;;4.37;100.00;98656.84;4134399;28;20217;-52
2023/12/20 03:17:24;;;;;;;1.70;1.60;;;;;;;4.43;100.00;98658.75;4140368;28;20213;-50
2023/12/20 03:19:26;;;;;;;1.38;1.35;;;;;;;4.44;100.00;98652.28;4151618;28;20271;-50
2023/12/20 03:21:28;;;;;;;1.55;1.48;;;;;;;4.43;100.00;98655.19;4135249;28;22629;-50
2023/12/20 03:23:30;;;;;;;1.80;1.70;;;;;;;4.43;100.00;98656.03;4134981;28;20268;-51
2023/12/20 03:25:32;;;;;;;3.60;1.67;;;;;;;4.44;100.00;98654.13;4142310;28;20320;-49
2023/12/20 03:27:33;;;;;;;1.60;1.50;;;;;;;4.48;100.00;98653.50;4135872;28;20278;-52
2023/12/20 03:29:35;;;;;;;2.22;2.13;;;;;;;4.47;100.00;98654.56;4142584;28;20240;-50
2023/12/20 03:31:37;;;;;;;1.85;1.75;;;;;;;4.52;100.00;98656.63;4135539;28;20313;-52
2023/12/20 03:33:39;;;;;;;1.50;1.40;;;;;;;4.51;100.00;98661.22;4136036;28;20288;-50
2023/12/20 03:35:41;;;;;;;2.08;1.98;;;;;;;4.52;100.00;98668.31;4131601;28;20227;-51
2023/12/20 03:37:43;;;;;;;1.55;1.45;;;;;;;4.55;100.00;98664.34;4121137;28;20726;-52
2023/12/20 03:39:45;;;;;;;1.52;1.42;;;;;;;4.54;100.00;98660.00;4136520;28;20209;-49
2023/12/20 03:41:47;;;;;;;1.70;1.60;;;;;;;4.55;100.00;98657.06;4137974;28;20252;-50
2023/12/20 03:43:48;;;;;;;1.85;1.75;;;;;;;4.51;100.00;98669.34;4142655;28;20221;-50
2023/12/20 03:45:50;;;;;;;1.92;1.83;;;;;;;4.57;100.00;98681.22;4128321;28;20226;-52
2023/12/20 03:47:56;;;;;;;1.23;1.23;;;;;;;4.63;100.00;98666.84;4137301;28;20291;-51
2023/12/20 03:49:58;;;;;;;1.58;1.48;;;;;;;4.62;100.00;98670.59;4136642;28;20252;-50
2023/12/20 03:52:00;;;;;;;2.35;2.25;;;;;;;4.68;100.00;98677.91;4121240;28;20214;-53
2023/12/20 03:54:02;;;;;;;1.98;1.83;;;;;;;4.66;100.00;98675.41;4136291;28;20205;-51
2023/12/20 03:56:03;;;;;;;1.52;1.52;;;;;;;4.66;100.00;98672.69;4137006;28;20264;-50
2023/12/20 03:58:05;;;;;;;2.13;2.03;;;;;;;4.69;100.00;98675.00;4120904;28;20233;-50
2023/12/20 04:00:10;;;;;;;1.98;1.88;;;;;;;4.65;100.00;98681.88;4135190;28;20695;-51
2023/12/20 04:02:12;;;;;;;1.42;1.40;;;;;;;4.66;100.00;98683.53;4140159;28;20206;-50
2023/12/20 04:04:14;;;;;;;2.22;2.08;;;;;;;4.69;100.00;98685.84;4135869;28;20713;-50
2023/12/20 04:06:18;;;;;;;3.13;2.28;;;;;;;4.71;100.00;98700.00;4136141;28;20205;-49
2023/12/20 04:08:20;;;;;;;1.98;1.88;;;;;;;4.71;100.00;98694.59;4138348;28;20320;-49
2023/12/20 04:10:22;;;;;;;2.03;1.92;;;;;;;4.76;100.00;98683.13;4138869;28;20216;-51
2023/12/20 04:12:24;;;;;;;2.03;1.83;;;;;;;4.81;100.00;98686.84;4133733;28;20214;-52
2023/12/20 04:14:26;;;;;;;2.65;2.35;;;;;;;4.77;100.00;98674.78;4132965;28;20268;-49
2023/12/20 04:16:27;;;;;;;1.98;1.77;;;;;;;4.81;100.00;98676.00;4134376;28;20205;-54
2023/12/20 04:18:29;;;;;;;2.33;2.22;;;;;;;4.80;100.00;98685.19;4124410;28;20233;-51
2023/12/20 04:20:31;;;;;;;2.53;2.33;;;;;;;4.83;100.00;98690.22;4142616;28;20209;-49
2023/12/20 04:22:32;;;;;;;1.75;1.65;;;;;;;4.81;100.00;98686.03;4135399;28;20210;-49
2023/12/20 04:24:34;;;;;;;2.05;1.48;;;;;;;4.84;100.00;98688.31;4126559;28;20594;-50
2023/12/20 04:26:36;;;;;;;1.60;1.50;;;;;;;4.82;100.00;98699.38;4139151;28;20229;-51
2023/12/20 04:28:38;;;;;;;2.55;2.45;;;;;;;4.75;100.00;98698.56;4135644;28;20236;-53
2023/12/20 04:30:40;;;;;;;2.00;1.85;;;;;;;4.85;100.00;98704.38;4135870;28;20248;-49
2023/12/20 04:32:41;;;;;;;2.53;2.38;;;;;;;4.82;100.00;98702.09;4121739;28;20210;-50
2023/12/20 04:34:43;;;;;;;2.08;1.92;;;;;;;4.86;100.00;98713.34;4136416;28;20233;-50
2023/12/20 04:36:45;;;;;;;2.33;2.22;;;;;;;4.84;100.00;98710.84;4136721;28;20214;-51
2023/12/20 04:38:47;;;;;;;2.65;2.55;;;;;;;4.89;100.00;98715.63;4134453;28;20324;-53
2023/12/20 04:40:49;;;;;;;2.47;2.38;;;;;;;4.88;100.00;98714.78;4120172;28;20257;-49
2023/12/20 04:42:50;;;;;;;1.90;1.80;;;;;;;4.92;100.00;98717.91;4136609;28;20201;-52
2023/12/20 04:44:52;;;;;;;1.58;1.48;;;;;;;4.83;100.00;98708.34;4135734;28;20271;-49
2023/12/20 04:46:56;;;;;;;2.90;2.70;;;;;;;4.88;100.00;98703.94;4134980;28;20211;-50
2023/12/20 04:48:58;;;;;;;2.10;2.00;;;;;;;4.87;100.00;98704.19;4143427;28;20221;-49
2023/12/20 04:51:00;;;;;;;1.50;1.40;;;;;;;4.82;100.00;98707.53;4135558;28;20256;-50
2023/12/20 04:53:01;;;;;;;2.13;1.80;;;;;;;4.88;100.00;98714.78;4137178;28;20267;-50
2023/12/20 04:55:03;;;;;;;1.65;1.55;;;;;;;4.91;100.00;98714.38;4137607;28;20202;-51
2023/12/20 04:57:05;;;;;;;1.90;1.80;;;;;;;4.82;100.00;98710.22;4135154;28;20316;-50
2023/12/20 04:59:07;;;;;;;1.60;1.50;;;;;;;4.83;100.00;98722.75;4135878;28;20786;-51
2023/12/20 05:01:09;;;;;;;1.83;1.73;;;;;;;4.87;100.00;98723.97;4132297;28;20224;-50
2023/12/20 05:03:11;;;;;;;2.50;2.33;;;;;;;4.81;100.00;98730.22;4138070;28;20606;-50
2023/12/20 05:05:14;;;;;;;1.75;1.65;;;;;;;4.85;100.00;98726.06;4134288;28;20867;-52
2023/12/20 05:07:16;;;;;;;2.05;1.95;;;;;;;4.81;100.00;98719.38;4139322;28;20217;-51
2023/12/20 05:09:18;;;;;;;1.85;1.55;;;;;;;4.81;100.00;98724.78;4137637;28;20221;-50
2023/12/20 05:11:20;;;;;;;1.95;1.85;;;;;;;4.78;100.00;98725.22;4134352;28;20212;-51
2023/12/20 05:13:22;;;;;;;1.67;1.55;;;;;;;4.76;100.00;98726.47;4142796;28;20217;-53
2023/12/20 05:15:27;;;;;;;2.00;1.90;;;;;;;4.67;100.00;98725.84;4134214;28;20214;-50
2023/12/20 05:17:28;;;;;;;1.70;1.60;;;;;;;4.60;100.00;98722.28;4137149;28;20213;-50
2023/12/20 05:19:30;;;;;;;1.33;1.23;;;;;;;4.64;100.00;98723.56;4118218;28;20223;-52
2023/12/20 05:21:33;;;;;;;2.08;1.98;;;;;;;4.61;100.00;98723.94;4134498;28;20320;-51
2023/12/20 05:23:35;;;;;;;1.70;1.60;;;;;;;4.57;100.00;98730.84;4133470;28;21088;-51
2023/12/20 05:25:36;;;;;;;2.15;2.05;;;;;;;4.62;100.00;98741.91;4152757;28;20237;-53
2023/12/20 05:27:38;;;;;;;2.13;2.03;;;;;;;4.65;100.00;98746.91;4137879;28;20626;-51
2023/12/20 05:29:40;;;;;;;1.60;1.50;;;;;;;4.58;100.00;98745.22;4123097;28;20268;-50
2023/12/20 05:31:41;;;;;;;1.67;1.58;;;;;;;4.60;100.00;98749.38;4143385;28;20305;-50
2023/12/20 05:33:43;;;;;;;1.80;1.70;;;;;;;4.58;100.00;98754.19;4134711;28;20556;-50
2023/12/20 05:35:45;;;;;;;1.75;1.63;;;;;;;4.63;100.00;98761.69;4137529;28;20201;-49
2023/12/20 05:37:47;;;;;;;1.60;1.50;;;;;;;4.68;100.00;98768.16;4143379;28;20302;-51
2023/12/20 05:39:49;;;;;;;1.80;1.70;;;;;;;4.64;100.00;98785.03;4140492;28;20210;-52
2023/12/20 05:41:51;;;;;;;2.17;1.58;;;;;;;4.69;100.00;98779.84;4138361;28;20292;-50
2023/12/20 05:43:52;;;;;;;2.00;1.88;;;;;;;4.69;100.00;98786.13;4140019;28;20634;-50
2023/12/20 05:45:54;;;;;;;1.50;1.40;;;;;;;4.71;100.00;98789.44;4126675;28;20226;-51
2023/12/20 05:47:56;;;;;;;1.80;1.70;;;;;;;4.74;100.00;98789.00;4142751;28;20267;-51
2023/12/20 05:49:58;;;;;;;4.28;3.88;;;;;;;4.66;100.00;98786.50;4127918;28;20248;-51
2023/12/20 05:52:00;;;;;;;3.40;3.10;;;;;;;4.66;100.00;98786.50;4138927;28;20212;-49
2023/12/20 05:54:02;;;;;;;2.58;1.92;;;;;;;4.62;100.00;98790.69;4136181;28;20645;-50
2023/12/20 05:56:04;;;;;;;2.28;2.13;;;;;;;4.65;100.00;98795.69;4143827;28;20210;-52
2023/12/20 05:58:06;;;;;;;2.25;2.15;;;;;;;4.66;100.00;98799.25;4134901;28;20233;-54
2023/12/20 06:00:09;;;;;;;2.33;1.83;;;;;;;4.68;100.00;98784.41;4140010;28;20205;-50
2023/12/20 06:02:11;;;;;;;5.07;2.20;;;;;;;4.63;100.00;98776.09;4133494;28;20206;-50
2023/12/20 06:04:12;;;;;;;2.25;2.05;;;;;;;4.62;100.00;98785.28;4144278;28;20263;-52
2023/12/20 06:06:14;;;;;;;3.67;2.13;;;;;;;4.61;100.00;98789.00;4135324;28;20221;-52
2023/12/20 06:08:17;;;;;;;1.17;1.17;;;;;;;4.52;100.00;98795.66;4137453;28;20325;-50
2023/12/20 06:10:19;;;;;;;1.17;1.17;;;;;;;4.61;100.00;98783.56;4138932;28;20214;-50
2023/12/20 06:12:21;;;;;;;1.45;1.33;;;;;;;4.44;100.00;98787.72;4141417;28;20221;-50
2023/12/20 06:14:23;;;;;;;1.65;1.55;;;;;;;4.45;100.00;98788.53;4136849;28;20237;-50
2023/12/20 06:16:25;;;;;;;1.67;1.50;;;;;;;4.41;100.00;98790.81;4141013;28;20209;-50
2023/12/20 06:18:27;;;;;;;1.20;1.20;;;;;;;4.36;100.00;98790.63;4136857;28;20241;-51
2023/12/20 06:20:28;;;;;;;2.17;2.08;;;;;;;4.41;100.00;98796.25;4135869;28;20222;-50
2023/12/20 06:22:30;;;;;;;0.98;0.98;;;;;;;4.38;100.00;98803.94;4136897;28;20238;-50
2023/12/20 06:24:33;;;;;;;2.10;1.63;;;;;;;4.38;100.00;98807.50;4143931;28;20340;-50
2023/12/20 06:26:35;;;;;;;1.10;1.10;;;;;;;4.33;100.00;98809.16;4137605;28;20202;-53
2023/12/20 06:28:37;;;;;;;1.50;1.40;;;;;;;4.32;100.00;98805.59;4142754;28;20308;-50
2023/12/20 06:30:42;;;;;;;1.10;1.10;;;;;;;4.31;100.00;98816.63;4136490;28;20590;-50
2023/12/20 06:32:46;;;;;;;1.95;1.88;;;;;;;4.35;100.00;98805.19;4135916;28;20203;-50
2023/12/20 06:34:48;;;;;;;4.13;2.08;;;;;;;4.34;100.00;98803.50;4138396;28;20293;-51
2023/12/20 06:36:50;;;;;;;1.55;1.45;;;;;;;4.23;100.00;98796.00;4140128;28;20683;-50
2023/12/20 06:38:52;;;;;;;1.52;1.42;;;;;;;4.34;100.00;98802.69;4135854;28;20271;-52
2023/12/20 06:40:54;;;;;;;1.83;1.73;;;;;;;4.17;100.00;98804.09;4139531;28;20567;-53
2023/12/20 06:42:55;;;;;;;1.67;1.58;;;;;;;4.15;100.00;98809.69;4138394;28;20574;-49
2023/12/20 06:45:10;;;;;;;1.30;1.30;;;;;;;4.13;100.00;98806.34;4136154;28;20259;-50
2023/12/20 06:47:13;;;;;;;0.85;0.85;;;;;;;4.17;100.00;98810.34;4137700;28;20960;-51
2023/12/20 06:49:15;;;;;;;1.98;1.88;;;;;;;4.10;100.00;98809.50;4121465;28;20213;-50
2023/12/20 06:51:19;;;;;;;1.10;1.10;;;;;;;4.12;100.00;98807.41;4139309;28;20671;-50
2023/12/20 06:53:21;;;;;;;1.25;1.25;;;;;;;4.07;100.00;98804.47;4138586;28;20210;-50
2023/12/20 06:55:22;;;;;;;1.05;1.05;;;;;;;4.14;100.00;98802.59;4138398;28;20213;-52
2023/12/20 06:57:25;;;;;;;1.45;1.35;;;;;;;4.14;100.00;98801.78;4137019;28;20217;-51
2023/12/20 06:59:27;;;;;;;1.13;1.13;;;;;;;4.12;100.00;98803.84;4136799;28;20213;-50
2023/12/20 07:01:29;;;;;;;2.28;1.15;;;;;;;4.19;100.00;98810.16;4137566;28;20209;-51
2023/12/20 07:03:31;;;;;;;1.65;1.55;;;;;;;4.21;100.00;98811.59;4134993;28;20306;-52
2023/12/20 07:05:33;;;;;;;1.15;1.10;;;;;;;4.21;100.00;98810.78;4137359;28;20218;-50
2023/12/20 07:07:35;;;;;;;1.08;1.08;;;;;;;4.22;100.00;98813.28;4136972;28;20276;-50
2023/12/20 07:09:38;;;;;;;2.00;1.48;;;;;;;4.17;100.00;98815.75;4135772;28;20575;-52
2023/12/20 07:11:40;;;;;;;1.02;1.02;;;;;;;4.16;100.00;98824.06;4126709;28;20210;-52
2023/12/20 07:13:41;;;;;;;1.13;1.13;;;;;;;4.18;100.00;98825.56;4136597;28;20224;-50
2023/12/20 07:15:43;;;;;;;1.20;1.10;;;;;;;4.17;100.00;98823.88;4117033;28;20257;-51
2023/12/20 07:17:45;;;;;;;1.02;1.02;;;;;;;4.06;100.00;98827.16;4138057;28;20233;-50
2023/12/20 07:19:47;;;;;;;1.48;1.48;;;;;;;4.13;100.00;98832.63;4136250;28;20218;-52
2023/12/20 07:21:49;;;;;;;0.90;0.90;;;;;;;4.05;100.00;98830.06;4134422;28;20685;-50
2023/12/20 07:23:51;;;;;;;1.75;1.63;;;;;;;4.03;100.00;98824.88;4135517;28;20209;-50
2023/12/20 07:25:56;;;;;;;6.68;1.63;;;;;;;3.94;100.00;98817.13;4137750;28;20221;-50
2023/12/20 07:27:58;;;;;;;0.90;0.90;;;;;;;3.99;100.00;98826.28;4136545;28;20233;-49
2023/12/20 07:30:00;;;;;;;1.45;1.35;;;;;;;3.97;100.00;98828.38;4149655;28;20286;-52
2023/12/20 07:32:02;;;;;;;0.80;0.80;;;;;;;3.92;100.00;98830.84;4136162;28;20679;-50
2023/12/20 07:34:03;;;;;;;3.63;1.45;;;;;;;3.97;100.00;98832.94;4135472;28;20210;-50
2023/12/20 07:36:06;;;;;;;2.20;2.10;;;;;;;3.87;100.00;98833.31;4142207;28;20205;-50
2023/12/20 07:38:07;;;;;;;1.30;1.20;;;;;;;3.88;100.00;98831.44;4133897;28;20234;-50
2023/12/20 07:40:09;;;;;;;5.20;1.20;;;;;;;3.89;100.00;98841.22;4136654;28;20202;-50
2023/12/20 07:42:11;;;;;;;1.00;1.00;;;;;;;3.90;100.00;98832.91;4142306;28;20231;-49
2023/12/20 07:44:13;;;;;;;0.95;0.95;;;;;;;3.90;100.00;98846.47;4135724;28;20209;-50
2023/12/20 07:46:15;;;;;;;1.23;1.23;;;;;;;3.88;100.00;98856.63;4137333;28;20221;-52
2023/12/20 07:48:16;;;;;;;1.05;1.00;;;;;;;3.79;100.00;98855.13;4136243;28;20256;-50
2023/12/20 07:50:18;;;;;;;1.10;1.10;;;;;;;3.77;100.00;98862.63;4135618;28;20241;-50
2023/12/20 07:52:22;;;;;;;1.10;1.10;;;;;;;3.76;100.00;98866.34;4126197;28;21560;-50
2023/12/20 07:54:24;;;;;;;1.23;1.23;;;;;;;3.80;100.00;98870.31;4136905;28;20297;-50
2023/12/20 07:56:26;;;;;;;1.00;1.00;;;;;;;3.82;100.00;98868.28;4142687;28;20201;-49
2023/12/20 07:58:29;;;;;;;1.65;1.65;;;;;;;3.75;100.00;98878.19;4143945;28;20236;-51
2023/12/20 08:00:50;;;;;;;3.35;1.83;;;;;;;3.76;100.00;98879.88;4136490;28;20690;-51
2023/12/20 08:02:52;;;;;;;1.35;1.25;;;;;;;3.76;100.00;98884.44;4136325;28;20687;-50
2023/12/20 08:04:54;;;;;;;1.20;1.20;;;;;;;3.78;100.00;98883.22;4143297;28;20645;-54
2023/12/20 08:06:56;;;;;;;5.15;1.00;;;;;;;3.86;100.00;98879.53;4135253;28;20758;-52
2023/12/20 08:08:58;;;;;;;4.50;1.27;;;;;;;3.77;100.00;98881.56;4141926;28;20234;-52
2023/12/20 08:11:07;;;;;;;1.45;1.35;;;;;;;3.76;100.00;98887.16;4127590;28;20252;-50
2023/12/20 08:13:09;;;;;;;1.10;1.10;;;;;;;3.77;100.00;98886.13;4151100;28;20212;-50
2023/12/20 08:15:10;;;;;;;1.20;1.10;;;;;;;3.77;100.00;98892.38;4139215;28;20206;-53
2023/12/20 08:17:12;;;;;;;2.92;1.00;;;;;;;3.77;100.00;98889.69;4142316;28;20244;-50
2023/12/20 08:19:14;;;;;;;1.30;1.20;;;;;;;3.71;100.00;98895.03;4139938;28;20221;-50
2023/12/20 08:21:16;;;;;;;1.63;1.52;;;;;;;3.77;100.00;98903.22;4139837;28;20562;-49
2023/12/20 08:23:18;;;;;;;3.63;1.30;;;;;;;3.76;100.00;98901.53;4139119;28;20740;-51
2023/12/20 08:25:20;;;;;;;6.60;1.02;;;;;;;3.78;100.00;98896.75;4137589;28;20226;-50
2023/12/20 08:27:22;;;;;;;0.90;0.90;;;;;;;3.82;100.00;98900.75;4138269;28;20304;-49
2023/12/20 08:29:23;;;;;;;1.38;1.38;;;;;;;3.80;100.00;98894.69;4137407;28;20589;-50
2023/12/20 08:31:26;;;;;;;2.45;1.00;;;;;;;3.82;100.00;98900.75;4136002;28;20280;-50
2023/12/20 08:33:27;;;;;;;1.70;1.40;;;;;;;3.79;100.00;98894.88;4140739;28;20205;-51
2023/12/20 08:35:29;;;;;;;1.05;1.00;;;;;;;3.76;100.00;98897.97;4134783;28;20210;-52
2023/12/20 08:37:31;;;;;;;6.88;1.38;;;;;;;3.72;100.00;98892.13;4133508;28;20281;-53
2023/12/20 08:39:33;;;;;;;1.50;1.20;;;;;;;3.83;100.00;98888.88;4140123;28;20209;-49
2023/12/20 08:41:35;;;;;;;1.48;1.38;;;;;;;3.84;100.00;98887.00;4141018;28;20566;-51
2023/12/20 08:43:39;;;;;;;2.28;2.08;;;;;;;3.89;100.00;98882.69;4133761;28;20252;-52
2023/12/20 08:45:40;;;;;;;1.48;1.33;;;;;;;3.97;100.00;98893.34;4133504;28;20232;-50
2023/12/20 08:47:44;;;;;;;1.02;1.00;;;;;;;4.06;100.00;98891.31;4136334;28;20234;-50
2023/12/20 08:49:47;;;;;;;1.25;1.25;;;;;;;4.07;100.00;98904.63;4136869;28;20206;-52
2023/12/20 08:51:49;;;;;;;4.03;2.10;;;;;;;4.22;100.00;98891.81;4136434;28;20210;-51
2023/12/20 08:53:51;;;;;;;2.15;1.55;;;;;;;4.28;100.00;98885.56;4135240;28;20206;-54
2023/12/20 08:55:53;;;;;;;1.33;1.33;;;;;;;4.32;100.00;98891.41;4139210;28;20205;-51
2023/12/20 08:57:54;;;;;;;1.92;1.05;;;;;;;4.31;100.00;98890.59;4138980;28;20235;-54
2023/12/20 08:59:56;;;;;;;2.63;2.40;;;;;;;4.41;100.00;98893.75;4153297;28;20208;-51
2023/12/20 09:01:58;;;;;;;1.70;1.60;;;;;;;4.35;100.00;98893.75;4135353;28;20248;-51
2023/12/20 09:04:00;;;;;;;2.22;2.03;;;;;;;4.35;100.00;98886.44;4145731;28;20213;-54
2023/12/20 09:06:02;;;;;;;9.95;1.77;;;;;;;4.42;100.00;98884.63;4134462;28;20210;-53
2023/12/20 09:08:05;;;;;;;3.17;2.75;;;;;;;4.42;100.00;98884.63;4127735;28;20257;-51
2023/12/20 09:10:07;;;;;;;2.08;1.98;;;;;;;4.39;100.00;98885.00;4144242;28;20205;-53
2023/12/20 09:12:08;;;;;;;1.55;1.45;;;;;;;4.44;100.00;98879.81;4152210;28;20222;-54
2023/12/20 09:14:10;;;;;;;1.63;1.52;;;;;;;4.44;100.00;98889.81;4143998;28;20252;-52
2023/12/20 09:16:13;;;;;;;5.70;1.63;;;;;;;4.47;100.00;98898.38;4141025;28;21155;-52
2023/12/20 09:18:15;;;;;;;1.17;1.08;;;;;;;4.48;100.00;98897.34;4137579;28;20233;-51
2023/12/20 09:20:17;;;;;;;7.55;1.70;;;;;;;4.52;100.00;98897.75;4135061;28;20217;-54
2023/12/20 09:22:19;;;;;;;1.60;1.50;;;;;;;4.49;100.00;98893.63;4147277;28;20420;-52
2023/12/20 09:24:21;;;;;;;2.42;1.52;;;;;;;4.46;100.00;98896.72;4127186;28;20659;-56
2023/12/20 09:26:23;;;;;;;2.95;1.70;;;;;;;4.54;100.00;98885.69;4127928;28;20340;-51
2023/12/20 09:28:25;;;;;;;1.23;1.20;;;;;;;4.48;100.00;98891.91;4141431;28;20680;-51
2023/12/20 09:30:27;;;;;;;1.42;1.38;;;;;;;4.52;100.00;98897.75;4139995;28;20198;-51
2023/12/20 09:32:29;;;;;;;2.13;2.03;;;;;;;4.57;100.00;98893.44;4125286;28;20205;-51
2023/12/20 09:34:31;;;;;;;2.13;1.33;;;;;;;4.52;100.00;98895.91;4153068;28;20216;-51
2023/12/20 09:36:36;;;;;;;3.90;3.53;;;;;;;4.60;100.00;98900.31;4145619;28;20202;-51